| Ora | Descriere | Temp | Se simte | Precipitatii | Umiditate | Vant |
|---|---|---|---|---|---|---|
| 00:00 | Senin | 13.6° | 13.6° | 0% | 67% | E 1.8 KM/H |
| 01:00 | Senin | 13° | 13.5° | 0% | 70% | ENE 4 KM/H |
| 02:00 | Senin | 12.5° | 13° | 0% | 72% | NE 3.6 KM/H |
| 03:00 | Senin | 12.1° | 12.5° | 0% | 74% | NE 4 KM/H |
| 04:00 | Senin | 11.8° | 11.9° | 0% | 75% | NE 4.7 KM/H |
| 05:00 | Senin | 11.4° | 11.6° | 0% | 77% | NE 4.3 KM/H |
| 06:00 | Senin | 11° | 11.4° | 0% | 79% | ENE 3.6 KM/H |
| 07:00 | Senin | 11.9° | 11.9° | 0% | 78% | ENE 2.9 KM/H |
| 08:00 | Senin | 14.3° | 14.4° | 0% | 70% | E 2.2 KM/H |
| 09:00 | Senin | 16.7° | 16.7° | 0% | 63% | SSE 2.5 KM/H |
| 10:00 | Senin | 18.5° | 18.5° | 0% | 57% | SW 5.8 KM/H |
| 11:00 | Senin | 19.9° | 19.9° | 0% | 53% | SW 7.9 KM/H |
| 12:00 | Senin | 21.1° | 21.1° | 0% | 48% | SW 8.6 KM/H |
| 13:00 | Senin | 22.1° | 24.3° | 0% | 45% | SW 9.4 KM/H |
| 14:00 | Senin | 22.7° | 24.4° | 0% | 43% | SW 9.7 KM/H |
| 15:00 | Senin | 23.3° | 24.5° | 0% | 41% | SW 10.1 KM/H |
| 16:00 | Senin | 23.4° | 24.6° | 0% | 41% | SW 10.1 KM/H |
| 17:00 | Senin | 23.2° | 24.5° | 0% | 42% | SW 12.6 KM/H |
| 18:00 | Senin | 22.8° | 24.5° | 0% | 46% | SW 10.8 KM/H |
| 19:00 | Senin | 21.7° | 21.7° | 0% | 57% | SSW 7.2 KM/H |
| 20:00 | Senin | 19° | 19° | 0% | 63% | S 4.3 KM/H |
| 21:00 | Senin | 16.8° | 16.8° | 0% | 66% | S 3.2 KM/H |
| 22:00 | Senin | 15.9° | 15.9° | 0% | 67% | SSE 2.5 KM/H |
| 23:00 | Senin | 15.4° | 15.4° | 0% | 68% | E 2.2 KM/H |